Time;durP1;ratioP1;P1;durP2;ratioP2;P2;SDS_P1;SDS_P2;PMS_P1;PMS_P2;Temp;Humidity;BMP_temperature;BMP_pressure;BME280_temperature;BME280_humidity;BME280_pressure;Samples;Min_cycle;Max_cycle;Signal;HPM_P1;HPM_P2
2023/01/27 00:00:38;;;;;;;27.92;20.80;;;;;;;;;;5053478;28;20096;-69
2023/01/27 00:03:04;;;;;;;29.73;20.13;;;;;;;;;;5035482;28;20465;-69
2023/01/27 00:05:29;;;;;;;25.10;19.80;;;;;;;;;;5053397;28;20370;-70
2023/01/27 00:07:57;;;;;;;25.40;19.58;;;;;;;;;;5053354;28;20036;-70
2023/01/27 00:10:24;;;;;;;30.23;20.20;;;;;;;;;;5053298;28;20400;-70
2023/01/27 00:15:33;;;;;;;32.58;21.58;;;;;;;;;;5035188;28;20051;-70
2023/01/27 00:17:59;;;;;;;38.33;23.25;;;;;;;;;;5053288;28;20017;-70
2023/01/27 00:26:01;;;;;;;31.13;20.63;;;;;;;;;;5048848;28;20041;-70
2023/01/27 00:28:30;;;;;;;33.90;21.92;;;;;;;;;;5033008;28;20035;-70
2023/01/27 00:30:55;;;;;;;31.38;20.08;;;;;;;;;;5033102;28;20040;-70
2023/01/27 00:33:26;;;;;;;32.03;20.33;;;;;;;;;;5016337;28;20033;-71
2023/01/27 00:35:58;;;;;;;27.70;18.98;;;;;;;;;;5033785;28;20029;-71
2023/01/27 00:38:24;;;;;;;25.95;18.40;;;;;;;;;;5015115;28;20037;-70
2023/01/27 00:41:14;;;;;;;24.60;19.02;;;;;;;;;;5015339;28;20060;-70
2023/01/27 00:43:35;;;;;;;29.25;19.10;;;;;;;;;;5032683;28;20037;-69
2023/01/27 00:46:00;;;;;;;29.88;20.77;;;;;;;;;;5015077;28;20027;-69
2023/01/27 00:48:26;;;;;;;27.23;19.77;;;;;;;;;;5046270;28;20067;-69
2023/01/27 00:50:51;;;;;;;27.33;19.77;;;;;;;;;;5034525;28;20286;-69
2023/01/27 00:53:16;;;;;;;27.85;20.15;;;;;;;;;;5052530;28;20029;-69
2023/01/27 00:55:43;;;;;;;28.23;19.73;;;;;;;;;;5034476;28;20044;-70
2023/01/27 00:58:08;;;;;;;31.38;21.10;;;;;;;;;;5052723;28;20028;-70
2023/01/27 01:00:36;;;;;;;31.38;20.70;;;;;;;;;;5052509;28;20085;-70
2023/01/27 01:03:01;;;;;;;29.75;21.10;;;;;;;;;;5034538;28;20394;-70
2023/01/27 01:05:29;;;;;;;32.40;21.88;;;;;;;;;;5034609;28;20076;-70
2023/01/27 01:07:54;;;;;;;28.23;21.17;;;;;;;;;;5035225;28;20086;-70
2023/01/27 01:10:20;;;;;;;33.67;21.85;;;;;;;;;;5052326;28;20115;-70
2023/01/27 01:12:45;;;;;;;30.60;21.08;;;;;;;;;;5034394;28;20032;-70
2023/01/27 01:15:11;;;;;;;32.10;21.70;;;;;;;;;;5055707;28;20036;-71
2023/01/27 01:17:36;;;;;;;31.55;22.13;;;;;;;;;;5039108;28;20036;-71
2023/01/27 01:20:01;;;;;;;31.92;22.10;;;;;;;;;;5056168;28;20381;-70
2023/01/27 01:22:27;;;;;;;30.67;21.77;;;;;;;;;;5038743;28;20381;-71
2023/01/27 01:24:53;;;;;;;32.03;22.23;;;;;;;;;;5038316;28;20043;-71
2023/01/27 01:27:18;;;;;;;32.90;21.88;;;;;;;;;;5056226;28;20029;-71
2023/01/27 01:29:45;;;;;;;29.65;22.05;;;;;;;;;;5056322;28;20530;-72
2023/01/27 01:32:11;;;;;;;32.47;22.70;;;;;;;;;;5038444;28;20056;-71
2023/01/27 01:34:36;;;;;;;32.38;22.70;;;;;;;;;;5056033;28;20073;-71
2023/01/27 01:37:02;;;;;;;34.10;24.02;;;;;;;;;;5038187;28;20048;-71
2023/01/27 01:39:28;;;;;;;35.05;23.88;;;;;;;;;;5056337;28;20039;-71
2023/01/27 01:41:53;;;;;;;37.72;23.98;;;;;;;;;;5056079;28;20472;-71
2023/01/27 01:44:23;;;;;;;31.83;23.58;;;;;;;;;;5055802;28;20036;-71
2023/01/27 01:46:48;;;;;;;34.00;24.45;;;;;;;;;;5056081;28;20025;-70
2023/01/27 01:49:15;;;;;;;36.38;24.30;;;;;;;;;;5055657;28;20489;-70
2023/01/27 01:51:49;;;;;;;33.20;23.77;;;;;;;;;;5055861;28;20520;-70
2023/01/27 01:54:22;;;;;;;32.47;23.67;;;;;;;;;;5055960;28;20021;-70
2023/01/27 01:56:50;;;;;;;32.97;23.27;;;;;;;;;;5055646;28;20070;-71
2023/01/27 01:59:18;;;;;;;33.80;23.75;;;;;;;;;;5037965;28;20575;-71
2023/01/27 02:01:44;;;;;;;40.83;25.58;;;;;;;;;;5021202;28;20472;-71
2023/01/27 02:04:15;;;;;;;38.35;25.13;;;;;;;;;;5038939;28;20079;-71
2023/01/27 02:06:51;;;;;;;37.78;25.35;;;;;;;;;;5038824;28;20029;-71
2023/01/27 02:09:17;;;;;;;38.17;25.85;;;;;;;;;;5056739;28;20032;-71
2023/01/27 02:11:44;;;;;;;32.13;23.38;;;;;;;;;;5022072;28;20102;-70
2023/01/27 02:14:10;;;;;;;27.42;19.15;;;;;;;;;;5038357;28;20028;-71
2023/01/27 02:16:36;;;;;;;25.98;19.65;;;;;;;;;;5056227;28;20469;-71
2023/01/27 02:19:01;;;;;;;23.98;17.77;;;;;;;;;;5038472;28;20041;-71
2023/01/27 02:21:29;;;;;;;24.58;18.02;;;;;;;;;;5038622;28;20116;-71
2023/01/27 02:24:11;;;;;;;25.55;16.25;;;;;;;;;;5038407;28;20036;-71
2023/01/27 02:26:41;;;;;;;22.02;15.15;;;;;;;;;;5054974;28;20039;-70
2023/01/27 02:29:09;;;;;;;20.50;15.00;;;;;;;;;;5056359;28;20104;-70
2023/01/27 02:31:34;;;;;;;23.85;16.23;;;;;;;;;;5021887;28;20036;-70
2023/01/27 02:34:03;;;;;;;21.67;16.10;;;;;;;;;;5056101;28;20029;-71
2023/01/27 02:36:30;;;;;;;21.42;15.73;;;;;;;;;;5038439;28;20029;-70
2023/01/27 02:38:57;;;;;;;22.52;16.40;;;;;;;;;;5038067;28;20086;-70
2023/01/27 02:41:28;;;;;;;22.55;15.82;;;;;;;;;;5055598;28;20111;-71
2023/01/27 02:43:54;;;;;;;23.05;17.25;;;;;;;;;;5037584;28;20049;-71
2023/01/27 02:46:19;;;;;;;21.75;16.48;;;;;;;;;;5037890;28;20064;-70
2023/01/27 02:48:45;;;;;;;24.83;16.77;;;;;;;;;;5055456;28;20032;-71
2023/01/27 02:51:10;;;;;;;22.23;16.33;;;;;;;;;;5037618;28;20116;-68
2023/01/27 02:53:40;;;;;;;24.15;16.13;;;;;;;;;;5037488;28;20032;-67
2023/01/27 02:56:06;;;;;;;20.85;16.95;;;;;;;;;;5037441;28;20040;-68
2023/01/27 02:58:31;;;;;;;23.52;16.15;;;;;;;;;;5054899;28;20057;-69
2023/01/27 03:01:05;;;;;;;24.73;16.77;;;;;;;;;;5055279;28;20390;-70
2023/01/27 03:03:32;;;;;;;25.92;16.90;;;;;;;;;;5021092;28;20024;-71
2023/01/27 03:05:58;;;;;;;29.42;19.13;;;;;;;;;;5037043;28;20111;-71
2023/01/27 03:08:23;;;;;;;24.20;16.30;;;;;;;;;;5020519;28;20036;-71
2023/01/27 03:10:50;;;;;;;26.63;17.35;;;;;;;;;;5036912;28;20106;-71
2023/01/27 03:13:19;;;;;;;24.52;16.83;;;;;;;;;;5055194;28;20029;-71
2023/01/27 03:18:29;;;;;;;26.48;17.48;;;;;;;;;;5037562;28;20029;-71
2023/01/27 03:20:59;;;;;;;24.02;16.02;;;;;;;;;;5037113;28;20400;-70
2023/01/27 03:23:25;;;;;;;22.33;16.15;;;;;;;;;;5055228;28;20074;-69
2023/01/27 03:25:50;;;;;;;23.77;17.10;;;;;;;;;;5036933;28;20025;-68
2023/01/27 03:28:15;;;;;;;21.65;15.50;;;;;;;;;;5036645;28;20370;-68
2023/01/27 03:30:58;;;;;;;24.95;16.35;;;;;;;;;;5036967;28;20063;-70
2023/01/27 03:33:30;;;;;;;24.30;16.92;;;;;;;;;;5022460;28;20082;-72
2023/01/27 03:47:01;;;;;;;22.17;16.15;;;;;;;;;;5054860;28;20032;-71
2023/01/27 03:49:27;;;;;;;23.20;15.85;;;;;;;;;;5054345;28;20013;-71
2023/01/27 03:51:53;;;;;;;24.83;16.33;;;;;;;;;;5020032;28;20170;-71
2023/01/27 03:54:18;;;;;;;26.05;15.70;;;;;;;;;;5054808;28;20060;-71
2023/01/27 03:56:43;;;;;;;21.90;15.68;;;;;;;;;;5054661;28;20116;-71
2023/01/27 03:59:10;;;;;;;23.67;15.98;;;;;;;;;;5036542;28;20469;-71
2023/01/27 04:01:35;;;;;;;21.63;15.43;;;;;;;;;;5036801;28;20039;-68
2023/01/27 04:07:01;;;;;;;22.10;15.55;;;;;;;;;;5054272;28;20112;-67
2023/01/27 04:09:29;;;;;;;20.67;13.50;;;;;;;;;;5036348;28;20040;-67
2023/01/27 04:11:55;;;;;;;19.67;14.25;;;;;;;;;;5054014;28;20029;-70
2023/01/27 04:14:21;;;;;;;18.27;14.93;;;;;;;;;;5036502;28;20388;-70
2023/01/27 04:16:48;;;;;;;18.48;14.55;;;;;;;;;;5036436;28;20068;-71
2023/01/27 04:19:14;;;;;;;17.70;14.85;;;;;;;;;;5053983;28;20020;-71
2023/01/27 04:21:40;;;;;;;18.73;14.10;;;;;;;;;;5036010;28;20043;-71
2023/01/27 04:24:16;;;;;;;17.13;14.23;;;;;;;;;;5053788;28;20025;-71
2023/01/27 04:26:44;;;;;;;18.90;13.95;;;;;;;;;;5053894;28;20099;-71
2023/01/27 04:29:11;;;;;;;17.75;14.27;;;;;;;;;;5036158;28;20021;-71
2023/01/27 04:31:36;;;;;;;21.55;14.98;;;;;;;;;;5053875;28;20033;-71
2023/01/27 04:34:02;;;;;;;19.30;13.90;;;;;;;;;;5019856;28;20136;-72
2023/01/27 04:36:28;;;;;;;18.05;14.65;;;;;;;;;;5035936;28;20079;-71
2023/01/27 04:38:53;;;;;;;18.50;14.30;;;;;;;;;;5053952;28;20021;-71
2023/01/27 04:41:18;;;;;;;18.65;14.02;;;;;;;;;;5054266;28;20032;-70
2023/01/27 04:43:44;;;;;;;17.50;14.18;;;;;;;;;;5053735;28;20017;-71
2023/01/27 04:46:09;;;;;;;20.55;14.57;;;;;;;;;;5035824;28;20372;-71
2023/01/27 04:48:35;;;;;;;20.85;15.73;;;;;;;;;;5035045;28;20052;-70
2023/01/27 04:51:01;;;;;;;20.98;15.02;;;;;;;;;;5035695;28;20028;-70
2023/01/27 04:53:27;;;;;;;16.98;14.50;;;;;;;;;;5019221;28;20029;-71
2023/01/27 04:55:59;;;;;;;16.75;14.35;;;;;;;;;;5053297;28;20048;-70
2023/01/27 04:58:24;;;;;;;20.85;14.65;;;;;;;;;;5035693;28;20033;-70
2023/01/27 05:00:52;;;;;;;17.55;15.05;;;;;;;;;;5053052;28;20538;-71
2023/01/27 05:03:17;;;;;;;18.58;14.07;;;;;;;;;;5052186;28;20115;-70
2023/01/27 05:05:42;;;;;;;20.30;14.55;;;;;;;;;;5035345;28;20536;-72
2023/01/27 05:08:09;;;;;;;19.42;15.40;;;;;;;;;;5053244;28;20029;-71
2023/01/27 05:10:36;;;;;;;20.45;14.98;;;;;;;;;;5053089;28;20021;-70
2023/01/27 05:13:01;;;;;;;19.98;14.80;;;;;;;;;;5053234;28;20052;-71
2023/01/27 05:15:27;;;;;;;18.20;14.55;;;;;;;;;;5018824;28;20480;-70
2023/01/27 05:17:53;;;;;;;16.65;14.35;;;;;;;;;;5035046;28;20041;-69
2023/01/27 05:20:18;;;;;;;19.45;14.98;;;;;;;;;;5052607;28;20103;-69
2023/01/27 05:22:44;;;;;;;18.90;14.68;;;;;;;;;;5018417;28;20427;-71
2023/01/27 05:25:09;;;;;;;18.92;15.75;;;;;;;;;;5052441;28;20036;-71
2023/01/27 05:27:34;;;;;;;21.63;14.85;;;;;;;;;;5053271;28;20025;-71
2023/01/27 05:30:00;;;;;;;22.65;15.65;;;;;;;;;;5053207;28;20373;-72
2023/01/27 05:32:26;;;;;;;21.75;16.52;;;;;;;;;;5052956;28;20156;-72
2023/01/27 05:34:51;;;;;;;25.65;16.95;;;;;;;;;;5035452;28;20174;-72
2023/01/27 05:37:16;;;;;;;23.25;17.13;;;;;;;;;;5053169;28;20040;-72
2023/01/27 05:39:42;;;;;;;23.25;16.73;;;;;;;;;;5035508;28;20037;-72
2023/01/27 05:42:07;;;;;;;24.98;17.58;;;;;;;;;;5053341;28;20395;-72
2023/01/27 05:44:32;;;;;;;22.17;17.20;;;;;;;;;;5034849;28;20377;-72
2023/01/27 05:46:57;;;;;;;23.55;16.88;;;;;;;;;;5053312;28;20063;-72
2023/01/27 05:49:24;;;;;;;22.70;16.25;;;;;;;;;;5034475;28;20053;-72
2023/01/27 05:51:49;;;;;;;23.73;18.35;;;;;;;;;;5052908;28;20033;-71
2023/01/27 05:54:17;;;;;;;24.25;19.67;;;;;;;;;;5018588;28;20083;-71
2023/01/27 05:56:42;;;;;;;23.08;17.50;;;;;;;;;;5052616;28;20257;-71
2023/01/27 05:59:09;;;;;;;22.05;15.77;;;;;;;;;;5034390;28;20462;-72
2023/01/27 06:01:36;;;;;;;20.98;15.93;;;;;;;;;;5037364;28;20094;-72
2023/01/27 06:04:01;;;;;;;24.30;17.08;;;;;;;;;;5038182;28;20082;-72
2023/01/27 06:06:28;;;;;;;22.85;16.52;;;;;;;;;;5038262;28;20457;-71
2023/01/27 06:08:53;;;;;;;25.17;16.83;;;;;;;;;;5056161;28;20159;-71
2023/01/27 06:11:19;;;;;;;22.80;18.00;;;;;;;;;;5055810;28;20063;-71
2023/01/27 06:13:45;;;;;;;25.35;18.58;;;;;;;;;;5056819;28;20021;-71
2023/01/27 06:16:12;;;;;;;33.13;27.33;;;;;;;;;;5057381;28;20074;-73
2023/01/27 06:18:38;;;;;;;42.92;33.72;;;;;;;;;;5035839;23;20505;-72
2023/01/27 06:21:04;;;;;;;215.48;145.70;;;;;;;;;;5055683;28;20025;-72
2023/01/27 06:23:32;;;;;;;58.85;51.33;;;;;;;;;;5056405;28;20031;-72
2023/01/27 06:26:02;;;;;;;75.38;48.33;;;;;;;;;;5056098;28;20045;-72
2023/01/27 06:28:34;;;;;;;70.53;51.55;;;;;;;;;;5056253;28;20029;-73
2023/01/27 06:31:03;;;;;;;77.28;56.17;;;;;;;;;;5054761;28;20021;-73
2023/01/27 06:33:30;;;;;;;72.10;50.67;;;;;;;;;;5054850;28;20005;-73
2023/01/27 06:35:59;;;;;;;49.60;35.55;;;;;;;;;;5049276;28;20041;-74
2023/01/27 06:38:25;;;;;;;45.63;34.10;;;;;;;;;;5055326;28;20052;-74
2023/01/27 06:40:50;;;;;;;40.45;30.90;;;;;;;;;;5037435;28;20056;-73
2023/01/27 06:43:15;;;;;;;40.38;31.70;;;;;;;;;;5055036;28;20036;-73
2023/01/27 06:45:41;;;;;;;54.42;35.25;;;;;;;;;;5055653;28;20025;-73
2023/01/27 06:48:07;;;;;;;78.45;52.78;;;;;;;;;;5056129;28;20055;-73
2023/01/27 06:50:32;;;;;;;79.93;58.70;;;;;;;;;;5055634;28;20036;-73
2023/01/27 06:52:59;;;;;;;66.43;36.35;;;;;;;;;;5052813;28;20369;-73
2023/01/27 06:55:24;;;;;;;109.18;55.05;;;;;;;;;;5052493;28;20017;-73
2023/01/27 06:57:50;;;;;;;77.40;50.97;;;;;;;;;;5052680;28;20035;-73
2023/01/27 07:00:16;;;;;;;68.68;50.08;;;;;;;;;;5052632;28;20099;-72
2023/01/27 07:02:42;;;;;;;71.60;50.00;;;;;;;;;;5052428;28;20465;-72
2023/01/27 07:05:08;;;;;;;61.17;40.15;;;;;;;;;;5053717;28;20028;-72
2023/01/27 07:07:33;;;;;;;49.97;36.20;;;;;;;;;;5074948;28;20099;-72
2023/01/27 07:09:58;;;;;;;38.90;26.95;;;;;;;;;;5057518;28;20032;-72
2023/01/27 07:12:25;;;;;;;43.78;31.08;;;;;;;;;;5056583;28;20021;-72
2023/01/27 07:14:50;;;;;;;41.53;28.02;;;;;;;;;;5057681;28;20021;-72
2023/01/27 07:17:15;;;;;;;41.70;32.13;;;;;;;;;;5075243;28;20435;-72
2023/01/27 07:19:40;;;;;;;35.78;27.02;;;;;;;;;;5057182;28;20036;-72
2023/01/27 07:22:06;;;;;;;39.42;26.45;;;;;;;;;;5057258;28;20447;-72
2023/01/27 07:24:31;;;;;;;48.63;28.98;;;;;;;;;;5075011;28;20036;-72
2023/01/27 07:26:56;;;;;;;64.28;33.83;;;;;;;;;;5075130;28;20013;-72
2023/01/27 07:29:25;;;;;;;33.25;23.85;;;;;;;;;;5074975;28;20460;-72
2023/01/27 07:31:50;;;;;;;32.40;22.38;;;;;;;;;;5074980;28;20028;-72
2023/01/27 07:34:15;;;;;;;35.42;23.20;;;;;;;;;;5074888;28;20036;-72
2023/01/27 07:36:41;;;;;;;39.25;26.17;;;;;;;;;;5056932;28;20112;-72
2023/01/27 07:39:06;;;;;;;34.85;24.50;;;;;;;;;;5074898;28;20033;-72
2023/01/27 07:41:31;;;;;;;58.20;36.72;;;;;;;;;;5074704;28;20064;-72
2023/01/27 07:43:58;;;;;;;408.15;191.43;;;;;;;;;;5074577;28;20020;-72
2023/01/27 07:46:25;;;;;;;295.95;138.57;;;;;;;;;;5056652;28;20029;-72
2023/01/27 07:48:52;;;;;;;50.97;37.20;;;;;;;;;;5074608;28;20061;-72
2023/01/27 07:51:18;;;;;;;39.78;34.58;;;;;;;;;;5056639;28;20028;-72
2023/01/27 07:53:43;;;;;;;49.63;41.60;;;;;;;;;;5074480;28;20035;-72
2023/01/27 07:56:11;;;;;;;29.83;23.42;;;;;;;;;;5056527;28;20021;-72
2023/01/27 07:58:37;;;;;;;40.53;33.35;;;;;;;;;;5074332;28;20032;-72
2023/01/27 08:01:10;;;;;;;54.70;40.35;;;;;;;;;;5056574;28;20028;-72
2023/01/27 08:03:37;;;;;;;39.60;29.13;;;;;;;;;;5074258;28;20040;-72
2023/01/27 08:06:08;;;;;;;32.55;24.65;;;;;;;;;;5074414;28;20438;-72
2023/01/27 08:08:33;;;;;;;35.55;26.67;;;;;;;;;;5056568;28;20031;-72
2023/01/27 08:10:59;;;;;;;31.02;22.55;;;;;;;;;;5074181;28;20373;-72
2023/01/27 08:13:25;;;;;;;32.08;23.98;;;;;;;;;;5074091;28;20039;-72
2023/01/27 08:15:57;;;;;;;35.67;26.58;;;;;;;;;;5056249;28;20020;-72
2023/01/27 08:18:24;;;;;;;36.30;26.77;;;;;;;;;;5073876;28;20043;-72
2023/01/27 08:20:51;;;;;;;49.45;34.20;;;;;;;;;;5056039;28;20498;-72
2023/01/27 08:23:18;;;;;;;36.00;26.52;;;;;;;;;;5039372;28;20029;-72
2023/01/27 08:25:53;;;;;;;36.17;27.33;;;;;;;;;;5073931;28;20452;-72
2023/01/27 08:28:25;;;;;;;41.00;29.90;;;;;;;;;;5073961;28;20052;-72
2023/01/27 08:30:51;;;;;;;41.92;27.27;;;;;;;;;;5073926;28;20035;-72
2023/01/27 08:33:18;;;;;;;38.55;26.73;;;;;;;;;;5103457;22;20033;-70
2023/01/27 08:35:46;;;;;;;40.47;26.80;;;;;;;;;;5014791;28;20057;-71
2023/01/27 08:38:12;;;;;;;38.70;25.92;;;;;;;;;;5033936;28;20052;-73
2023/01/27 08:40:39;;;;;;;36.80;24.52;;;;;;;;;;5016128;28;20038;-73
2023/01/27 08:43:04;;;;;;;46.60;31.52;;;;;;;;;;5033805;28;20037;-73
2023/01/27 08:45:30;;;;;;;38.03;27.70;;;;;;;;;;5097222;22;20095;-72
2023/01/27 08:47:55;;;;;;;32.58;23.98;;;;;;;;;;5053605;28;20396;-72
2023/01/27 08:50:20;;;;;;;32.40;22.60;;;;;;;;;;5053699;28;20066;-72
2023/01/27 08:52:46;;;;;;;36.03;26.38;;;;;;;;;;5053549;28;20036;-72
2023/01/27 08:55:11;;;;;;;55.33;42.67;;;;;;;;;;5053457;28;20032;-72
2023/01/27 08:57:36;;;;;;;116.15;87.63;;;;;;;;;;5053453;28;20037;-72
2023/01/27 09:00:02;;;;;;;159.82;115.72;;;;;;;;;;5035609;28;20025;-72
2023/01/27 09:02:28;;;;;;;101.88;85.25;;;;;;;;;;5035725;28;20041;-72
2023/01/27 09:04:54;;;;;;;62.97;51.75;;;;;;;;;;5053325;28;20035;-72
2023/01/27 09:07:19;;;;;;;50.65;43.22;;;;;;;;;;5053327;28;20013;-72
2023/01/27 09:09:45;;;;;;;54.35;43.80;;;;;;;;;;5053362;28;20084;-72
2023/01/27 09:12:10;;;;;;;40.78;27.23;;;;;;;;;;5035619;28;20033;-72
2023/01/27 09:14:36;;;;;;;46.53;32.95;;;;;;;;;;5053321;28;20060;-72
2023/01/27 09:17:01;;;;;;;34.35;24.30;;;;;;;;;;5018976;28;20036;-72
2023/01/27 09:19:26;;;;;;;38.05;26.77;;;;;;;;;;5053287;28;20025;-72
2023/01/27 09:21:51;;;;;;;40.70;28.25;;;;;;;;;;5053189;28;20350;-72
2023/01/27 09:24:18;;;;;;;60.53;44.08;;;;;;;;;;5053261;28;20033;-72
2023/01/27 09:26:43;;;;;;;39.80;29.00;;;;;;;;;;5053105;28;20029;-73
2023/01/27 09:29:08;;;;;;;172.88;137.63;;;;;;;;;;5018872;28;20036;-72
2023/01/27 09:31:34;;;;;;;36.35;26.50;;;;;;;;;;5019404;28;20025;-72
2023/01/27 09:33:59;;;;;;;42.47;35.60;;;;;;;;;;5053098;28;20040;-72
2023/01/27 09:36:25;;;;;;;31.13;24.20;;;;;;;;;;5038789;28;20037;-72
2023/01/27 09:38:52;;;;;;;32.08;23.00;;;;;;;;;;5057115;28;20025;-72
2023/01/27 09:41:30;;;;;;;33.28;23.75;;;;;;;;;;5057014;28;20037;-72
2023/01/27 09:44:05;;;;;;;33.10;22.15;;;;;;;;;;5056925;28;20033;-72
2023/01/27 09:46:37;;;;;;;30.13;20.55;;;;;;;;;;5056830;28;20549;-72
2023/01/27 09:49:29;;;;;;;32.92;24.40;;;;;;;;;;5056856;28;20071;-72
2023/01/27 09:52:06;;;;;;;32.75;23.70;;;;;;;;;;5035989;28;20068;-73
2023/01/27 09:54:47;;;;;;;33.88;22.50;;;;;;;;;;5056924;28;20029;-72
2023/01/27 09:57:12;;;;;;;28.63;20.25;;;;;;;;;;5056738;28;20036;-72
2023/01/27 09:59:59;;;;;;;35.50;24.33;;;;;;;;;;5056685;28;20028;-72
2023/01/27 10:02:27;;;;;;;36.75;24.90;;;;;;;;;;5056606;28;20116;-73
2023/01/27 10:04:55;;;;;;;37.30;26.77;;;;;;;;;;5056477;28;20039;-72
2023/01/27 10:07:27;;;;;;;34.38;23.50;;;;;;;;;;5038722;28;20033;-72
2023/01/27 10:09:56;;;;;;;31.77;21.90;;;;;;;;;;5056488;28;20021;-73
2023/01/27 10:12:34;;;;;;;36.20;25.33;;;;;;;;;;5056477;28;20033;-72
2023/01/27 10:15:07;;;;;;;35.08;23.80;;;;;;;;;;5038696;28;20423;-73
2023/01/27 10:17:50;;;;;;;29.55;20.75;;;;;;;;;;5056300;28;20554;-72
2023/01/27 10:20:25;;;;;;;31.33;20.75;;;;;;;;;;5038477;28;20036;-72
2023/01/27 10:22:59;;;;;;;35.58;27.27;;;;;;;;;;5021870;28;20040;-72
2023/01/27 10:25:50;;;;;;;32.40;23.50;;;;;;;;;;5038546;28;20033;-72
2023/01/27 10:28:17;;;;;;;98.53;68.65;;;;;;;;;;5038446;28;20078;-73
2023/01/27 10:30:49;;;;;;;36.63;25.38;;;;;;;;;;5038227;28;20021;-72
2023/01/27 10:33:20;;;;;;;52.03;35.88;;;;;;;;;;5056201;28;20086;-72
2023/01/27 10:35:56;;;;;;;84.15;61.75;;;;;;;;;;5056263;28;20025;-72
2023/01/27 10:38:34;;;;;;;54.65;38.25;;;;;;;;;;5038161;28;20025;-72
2023/01/27 10:41:02;;;;;;;32.97;24.08;;;;;;;;;;5038271;28;20060;-72
2023/01/27 10:43:32;;;;;;;31.63;23.45;;;;;;;;;;5056041;28;20116;-72
2023/01/27 10:46:03;;;;;;;109.57;47.03;;;;;;;;;;5044719;28;20125;-72
2023/01/27 10:48:37;;;;;;;33.30;24.05;;;;;;;;;;5035551;28;20025;-72
2023/01/27 10:51:09;;;;;;;37.40;26.38;;;;;;;;;;5035922;28;20041;-72
2023/01/27 10:53:38;;;;;;;45.28;30.60;;;;;;;;;;5035915;28;20041;-72
2023/01/27 10:56:12;;;;;;;43.08;30.67;;;;;;;;;;5018260;28;20037;-72
2023/01/27 10:58:54;;;;;;;105.95;60.13;;;;;;;;;;5017855;28;20041;-72
2023/01/27 11:01:24;;;;;;;86.35;55.50;;;;;;;;;;5035562;28;20033;-72
2023/01/27 11:04:10;;;;;;;67.38;44.10;;;;;;;;;;5062958;23;20060;-72
2023/01/27 11:06:37;;;;;;;27.40;19.83;;;;;;;;;;5055018;28;20045;-72
2023/01/27 11:09:05;;;;;;;33.85;24.45;;;;;;;;;;5055407;28;20045;-72
2023/01/27 11:11:48;;;;;;;30.30;21.60;;;;;;;;;;5054302;28;20033;-72
2023/01/27 11:14:13;;;;;;;46.42;30.88;;;;;;;;;;5062981;22;20061;-72
2023/01/27 11:16:41;;;;;;;40.90;30.25;;;;;;;;;;5078515;23;20462;-72
2023/01/27 11:19:25;;;;;;;45.60;34.33;;;;;;;;;;5037698;28;20079;-72
2023/01/27 11:21:53;;;;;;;93.18;72.95;;;;;;;;;;5055153;28;20029;-72
2023/01/27 11:24:27;;;;;;;64.50;50.13;;;;;;;;;;5037249;28;20059;-72
2023/01/27 11:27:00;;;;;;;157.73;108.32;;;;;;;;;;5055161;28;20047;-72
2023/01/27 11:29:34;;;;;;;217.30;137.48;;;;;;;;;;5055077;28;20040;-72
2023/01/27 11:32:07;;;;;;;46.28;35.20;;;;;;;;;;5055014;28;20079;-72
2023/01/27 11:34:32;;;;;;;61.13;46.92;;;;;;;;;;5055001;28;20039;-72
2023/01/27 11:36:59;;;;;;;70.10;44.63;;;;;;;;;;5054877;28;20451;-72
2023/01/27 11:39:29;;;;;;;40.95;30.90;;;;;;;;;;5053694;28;20540;-72
2023/01/27 11:41:55;;;;;;;70.28;50.60;;;;;;;;;;5036955;28;20456;-72
2023/01/27 11:44:26;;;;;;;51.88;37.00;;;;;;;;;;5054672;28;20032;-72
2023/01/27 11:46:52;;;;;;;48.72;34.05;;;;;;;;;;5054820;28;20024;-72
2023/01/27 11:49:20;;;;;;;35.97;26.05;;;;;;;;;;5054624;28;20020;-72
2023/01/27 11:51:47;;;;;;;38.90;27.17;;;;;;;;;;5054574;28;20029;-72
2023/01/27 11:54:20;;;;;;;59.33;32.83;;;;;;;;;;5054531;28;20041;-72
2023/01/27 11:56:46;;;;;;;54.22;32.45;;;;;;;;;;5036682;28;20074;-73
2023/01/27 11:59:17;;;;;;;45.45;31.90;;;;;;;;;;5036352;28;20123;-72
2023/01/27 12:02:01;;;;;;;38.08;27.67;;;;;;;;;;5054453;28;20559;-72
2023/01/27 12:04:39;;;;;;;68.20;37.20;;;;;;;;;;5054437;28;20456;-72
2023/01/27 12:07:12;;;;;;;281.08;213.88;;;;;;;;;;5054372;28;20029;-72
2023/01/27 12:09:39;;;;;;;227.93;134.35;;;;;;;;;;5053224;28;20048;-73
2023/01/27 12:12:10;;;;;;;304.45;132.48;;;;;;;;;;5054248;28;20104;-73
2023/01/27 12:14:35;;;;;;;194.00;108.07;;;;;;;;;;5036549;28;20033;-72
2023/01/27 12:17:00;;;;;;;39.10;25.88;;;;;;;;;;5049450;28;20504;-72
2023/01/27 12:19:30;;;;;;;27.65;19.00;;;;;;;;;;5034119;28;20029;-72
2023/01/27 12:22:01;;;;;;;228.05;90.50;;;;;;;;;;5034171;28;20040;-72
2023/01/27 12:24:48;;;;;;;148.75;61.97;;;;;;;;;;5034093;28;20037;-72
2023/01/27 12:27:24;;;;;;;314.63;200.50;;;;;;;;;;5034342;28;20021;-72
2023/01/27 12:29:55;;;;;;;147.02;85.00;;;;;;;;;;5033320;28;20030;-72
2023/01/27 12:32:23;;;;;;;249.13;107.00;;;;;;;;;;5033027;28;20025;-72
2023/01/27 12:34:55;;;;;;;91.55;66.40;;;;;;;;;;5032565;28;20522;-72
2023/01/27 12:37:30;;;;;;;105.40;69.88;;;;;;;;;;5032456;28;20044;-72
2023/01/27 12:40:01;;;;;;;484.52;210.48;;;;;;;;;;5032645;28;20029;-72
2023/01/27 12:42:34;;;;;;;253.50;92.72;;;;;;;;;;5033826;28;20041;-72
2023/01/27 12:44:59;;;;;;;61.70;31.05;;;;;;;;;;5033764;28;20029;-72
2023/01/27 12:47:25;;;;;;;45.30;28.92;;;;;;;;;;5033743;28;20148;-72
2023/01/27 12:49:50;;;;;;;132.45;52.83;;;;;;;;;;5032378;28;20025;-72
2023/01/27 12:52:20;;;;;;;146.60;52.35;;;;;;;;;;5033648;28;20466;-72
2023/01/27 12:54:46;;;;;;;310.63;97.88;;;;;;;;;;5033632;28;20429;-72
2023/01/27 12:57:14;;;;;;;71.10;41.20;;;;;;;;;;5033660;28;20080;-72
2023/01/27 12:59:48;;;;;;;41.47;27.67;;;;;;;;;;5032447;28;20063;-72
2023/01/27 13:02:18;;;;;;;50.03;30.25;;;;;;;;;;5032387;28;20533;-72
2023/01/27 13:04:48;;;;;;;199.75;75.13;;;;;;;;;;5033537;28;20481;-72
2023/01/27 13:07:16;;;;;;;327.67;115.03;;;;;;;;;;5033561;28;20103;-73
2023/01/27 13:09:49;;;;;;;83.80;44.28;;;;;;;;;;5031509;28;20080;-72
2023/01/27 13:12:18;;;;;;;76.30;36.83;;;;;;;;;;5032094;28;20040;-72
2023/01/27 13:14:43;;;;;;;112.50;56.05;;;;;;;;;;5033376;28;20492;-71
2023/01/27 13:17:30;;;;;;;45.17;29.17;;;;;;;;;;5035227;28;20143;-72
2023/01/27 13:19:58;;;;;;;152.27;68.28;;;;;;;;;;5023044;28;20094;-72
2023/01/27 13:22:25;;;;;;;55.40;35.50;;;;;;;;;;5053375;28;20484;-72
2023/01/27 13:24:54;;;;;;;172.43;82.40;;;;;;;;;;5035287;28;20465;-72
2023/01/27 13:27:20;;;;;;;54.95;37.97;;;;;;;;;;5053189;28;20028;-72
2023/01/27 13:29:55;;;;;;;77.63;48.35;;;;;;;;;;5018916;28;20013;-72
2023/01/27 13:32:23;;;;;;;75.13;44.53;;;;;;;;;;5035356;28;20029;-72
2023/01/27 13:34:53;;;;;;;72.85;41.72;;;;;;;;;;5053128;28;20025;-72
2023/01/27 13:37:18;;;;;;;63.15;36.83;;;;;;;;;;5053058;28;20029;-72
2023/01/27 13:40:03;;;;;;;54.63;34.88;;;;;;;;;;5035504;28;20032;-72
2023/01/27 13:45:46;;;;;;;40.05;29.17;;;;;;;;;;5056799;22;20341;-72
2023/01/27 13:48:12;;;;;;;65.07;40.78;;;;;;;;;;5015558;28;20025;-72
2023/01/27 13:50:40;;;;;;;218.38;143.73;;;;;;;;;;5033128;28;20490;-72
2023/01/27 13:53:09;;;;;;;58.47;47.92;;;;;;;;;;5032968;28;20018;-73
2023/01/27 13:55:46;;;;;;;45.20;34.47;;;;;;;;;;5015486;28;20030;-73
2023/01/27 13:58:15;;;;;;;95.80;68.55;;;;;;;;;;5015244;28;20382;-73
2023/01/27 14:00:47;;;;;;;38.08;25.85;;;;;;;;;;5033088;28;20037;-73
2023/01/27 14:03:34;;;;;;;67.28;43.88;;;;;;;;;;5033191;28;20037;-72
2023/01/27 14:06:08;;;;;;;90.22;57.30;;;;;;;;;;5032881;28;20025;-72
2023/01/27 14:08:33;;;;;;;52.03;30.10;;;;;;;;;;5032919;28;20029;-72
2023/01/27 14:10:58;;;;;;;44.55;32.97;;;;;;;;;;5033002;28;20036;-72
2023/01/27 14:13:30;;;;;;;37.75;27.30;;;;;;;;;;5015248;28;20010;-72
2023/01/27 14:16:08;;;;;;;43.35;29.27;;;;;;;;;;5032879;28;20034;-72
2023/01/27 14:18:36;;;;;;;42.85;28.25;;;;;;;;;;4998778;28;20079;-72
2023/01/27 14:21:26;;;;;;;72.18;49.35;;;;;;;;;;5033856;28;20029;-73
2023/01/27 14:23:59;;;;;;;94.55;61.85;;;;;;;;;;5036338;28;20044;-72
2023/01/27 14:26:37;;;;;;;53.05;35.42;;;;;;;;;;5018830;28;20025;-72
2023/01/27 14:29:02;;;;;;;54.08;39.35;;;;;;;;;;5018730;28;20025;-72
2023/01/27 14:31:50;;;;;;;59.08;42.35;;;;;;;;;;5034524;28;20386;-72
2023/01/27 14:34:33;;;;;;;61.75;42.78;;;;;;;;;;4990038;28;20409;-72
2023/01/27 14:37:17;;;;;;;42.33;28.70;;;;;;;;;;5034939;28;20041;-72
2023/01/27 14:39:53;;;;;;;49.05;35.30;;;;;;;;;;5035050;28;20040;-72
2023/01/27 14:42:25;;;;;;;78.72;47.00;;;;;;;;;;5035441;28;20037;-72
2023/01/27 14:44:56;;;;;;;36.33;23.38;;;;;;;;;;5034942;28;20044;-74
2023/01/27 14:47:24;;;;;;;112.65;62.78;;;;;;;;;;5034752;28;20120;-72
2023/01/27 14:49:56;;;;;;;185.48;99.10;;;;;;;;;;5034781;28;20021;-72
2023/01/27 14:52:35;;;;;;;61.10;37.33;;;;;;;;;;5000723;28;20025;-72